sensor_id;sensor_type;location;lat;lon;timestamp;P1;durP1;ratioP1;P2;durP2;ratioP2
21899;SDS011;11114;50.658;12.704;2023-11-21T00:00:09;19.45;;;18.05;;
21899;SDS011;11114;50.658;12.704;2023-11-21T00:02:57;19.20;;;17.77;;
21899;SDS011;11114;50.658;12.704;2023-11-21T00:05:44;19.42;;;17.92;;
21899;SDS011;11114;50.658;12.704;2023-11-21T00:08:31;20.05;;;18.38;;
21899;SDS011;11114;50.658;12.704;2023-11-21T00:11:18;19.65;;;18.05;;
21899;SDS011;11114;50.658;12.704;2023-11-21T00:14:04;20.67;;;19.17;;
21899;SDS011;11114;50.658;12.704;2023-11-21T00:16:51;21.02;;;19.42;;
21899;SDS011;11114;50.658;12.704;2023-11-21T00:19:37;20.70;;;19.10;;
21899;SDS011;11114;50.658;12.704;2023-11-21T00:22:25;20.45;;;18.90;;
21899;SDS011;11114;50.658;12.704;2023-11-21T00:25:14;19.35;;;17.80;;
21899;SDS011;11114;50.658;12.704;2023-11-21T00:28:02;19.15;;;17.65;;
21899;SDS011;11114;50.658;12.704;2023-11-21T00:30:49;18.75;;;17.27;;
21899;SDS011;11114;50.658;12.704;2023-11-21T00:33:37;18.98;;;17.50;;
21899;SDS011;11114;50.658;12.704;2023-11-21T00:36:24;19.05;;;17.52;;
21899;SDS011;11114;50.658;12.704;2023-11-21T00:39:12;20.25;;;18.55;;
21899;SDS011;11114;50.658;12.704;2023-11-21T00:41:58;20.05;;;18.35;;
21899;SDS011;11114;50.658;12.704;2023-11-21T00:44:45;19.40;;;17.75;;
21899;SDS011;11114;50.658;12.704;2023-11-21T00:47:32;19.75;;;18.05;;
21899;SDS011;11114;50.658;12.704;2023-11-21T00:50:19;19.00;;;17.50;;
21899;SDS011;11114;50.658;12.704;2023-11-21T00:53:06;18.77;;;17.38;;
21899;SDS011;11114;50.658;12.704;2023-11-21T00:55:53;19.25;;;17.73;;
21899;SDS011;11114;50.658;12.704;2023-11-21T00:58:43;18.25;;;16.85;;
21899;SDS011;11114;50.658;12.704;2023-11-21T01:01:32;19.50;;;18.10;;
21899;SDS011;11114;50.658;12.704;2023-11-21T01:04:18;19.65;;;18.25;;
21899;SDS011;11114;50.658;12.704;2023-11-21T01:10:17;19.00;;;17.60;;
21899;SDS011;11114;50.658;12.704;2023-11-21T01:13:04;19.05;;;17.50;;
21899;SDS011;11114;50.658;12.704;2023-11-21T01:15:51;17.80;;;16.50;;
21899;SDS011;11114;50.658;12.704;2023-11-21T01:18:38;17.83;;;16.52;;
21899;SDS011;11114;50.658;12.704;2023-11-21T01:21:25;18.30;;;17.00;;
21899;SDS011;11114;50.658;12.704;2023-11-21T01:24:12;18.08;;;16.70;;
21899;SDS011;11114;50.658;12.704;2023-11-21T01:26:58;18.58;;;17.08;;
21899;SDS011;11114;50.658;12.704;2023-11-21T01:29:45;19.02;;;17.30;;
21899;SDS011;11114;50.658;12.704;2023-11-21T01:32:32;18.30;;;16.88;;
21899;SDS011;11114;50.658;12.704;2023-11-21T01:35:19;19.23;;;17.70;;
21899;SDS011;11114;50.658;12.704;2023-11-21T01:38:05;18.33;;;16.92;;
21899;SDS011;11114;50.658;12.704;2023-11-21T01:40:54;18.23;;;16.75;;
21899;SDS011;11114;50.658;12.704;2023-11-21T01:43:41;18.10;;;16.75;;
21899;SDS011;11114;50.658;12.704;2023-11-21T01:46:28;18.20;;;16.77;;
21899;SDS011;11114;50.658;12.704;2023-11-21T01:49:15;19.27;;;17.77;;
21899;SDS011;11114;50.658;12.704;2023-11-21T01:52:01;19.63;;;18.00;;
21899;SDS011;11114;50.658;12.704;2023-11-21T01:54:50;19.25;;;17.73;;
21899;SDS011;11114;50.658;12.704;2023-11-21T01:57:38;18.85;;;17.52;;
21899;SDS011;11114;50.658;12.704;2023-11-21T02:00:25;19.40;;;17.80;;
21899;SDS011;11114;50.658;12.704;2023-11-21T02:03:14;18.00;;;16.60;;
21899;SDS011;11114;50.658;12.704;2023-11-21T02:06:01;18.00;;;16.65;;
21899;SDS011;11114;50.658;12.704;2023-11-21T02:08:48;18.20;;;16.80;;
21899;SDS011;11114;50.658;12.704;2023-11-21T02:11:35;19.13;;;17.52;;
21899;SDS011;11114;50.658;12.704;2023-11-21T02:14:21;19.67;;;18.10;;
21899;SDS011;11114;50.658;12.704;2023-11-21T02:17:08;19.38;;;17.77;;
21899;SDS011;11114;50.658;12.704;2023-11-21T02:19:55;19.73;;;18.23;;
21899;SDS011;11114;50.658;12.704;2023-11-21T02:22:42;19.60;;;18.10;;
21899;SDS011;11114;50.658;12.704;2023-11-21T02:25:32;19.40;;;17.98;;
21899;SDS011;11114;50.658;12.704;2023-11-21T02:28:23;18.85;;;17.35;;
21899;SDS011;11114;50.658;12.704;2023-11-21T02:31:15;19.60;;;17.83;;
21899;SDS011;11114;50.658;12.704;2023-11-21T02:34:04;19.05;;;17.55;;
21899;SDS011;11114;50.658;12.704;2023-11-21T02:36:51;18.98;;;17.48;;
21899;SDS011;11114;50.658;12.704;2023-11-21T02:39:38;20.50;;;18.70;;
21899;SDS011;11114;50.658;12.704;2023-11-21T02:42:24;19.88;;;17.92;;
21899;SDS011;11114;50.658;12.704;2023-11-21T02:45:13;19.23;;;17.83;;
21899;SDS011;11114;50.658;12.704;2023-11-21T02:48:00;19.00;;;17.50;;
21899;SDS011;11114;50.658;12.704;2023-11-21T02:50:46;18.70;;;17.08;;
21899;SDS011;11114;50.658;12.704;2023-11-21T02:53:33;19.10;;;17.40;;
21899;SDS011;11114;50.658;12.704;2023-11-21T02:56:20;18.77;;;17.20;;
21899;SDS011;11114;50.658;12.704;2023-11-21T02:59:06;18.63;;;17.05;;
21899;SDS011;11114;50.658;12.704;2023-11-21T03:01:53;18.67;;;17.30;;
21899;SDS011;11114;50.658;12.704;2023-11-21T03:04:39;19.63;;;17.85;;
21899;SDS011;11114;50.658;12.704;2023-11-21T03:07:26;19.00;;;17.50;;
21899;SDS011;11114;50.658;12.704;2023-11-21T03:10:13;19.23;;;17.60;;
21899;SDS011;11114;50.658;12.704;2023-11-21T03:12:59;18.80;;;17.38;;
21899;SDS011;11114;50.658;12.704;2023-11-21T03:15:45;18.83;;;17.02;;
21899;SDS011;11114;50.658;12.704;2023-11-21T03:18:32;18.60;;;17.20;;
21899;SDS011;11114;50.658;12.704;2023-11-21T03:21:18;17.77;;;16.48;;
21899;SDS011;11114;50.658;12.704;2023-11-21T03:24:06;17.60;;;16.33;;
21899;SDS011;11114;50.658;12.704;2023-11-21T03:26:54;18.90;;;17.27;;
21899;SDS011;11114;50.658;12.704;2023-11-21T03:29:41;18.98;;;17.30;;
21899;SDS011;11114;50.658;12.704;2023-11-21T03:32:27;19.00;;;17.40;;
21899;SDS011;11114;50.658;12.704;2023-11-21T03:35:14;19.58;;;17.90;;
21899;SDS011;11114;50.658;12.704;2023-11-21T03:38:01;18.80;;;17.38;;
21899;SDS011;11114;50.658;12.704;2023-11-21T03:40:48;18.70;;;17.20;;
21899;SDS011;11114;50.658;12.704;2023-11-21T03:43:35;18.00;;;16.70;;
21899;SDS011;11114;50.658;12.704;2023-11-21T03:46:23;18.50;;;17.10;;
21899;SDS011;11114;50.658;12.704;2023-11-21T03:49:11;18.30;;;16.90;;
21899;SDS011;11114;50.658;12.704;2023-11-21T03:52:00;18.27;;;16.88;;
21899;SDS011;11114;50.658;12.704;2023-11-21T03:54:46;18.85;;;17.38;;
21899;SDS011;11114;50.658;12.704;2023-11-21T03:57:32;18.23;;;16.83;;
21899;SDS011;11114;50.658;12.704;2023-11-21T04:00:19;18.63;;;17.13;;
21899;SDS011;11114;50.658;12.704;2023-11-21T04:03:06;19.02;;;17.52;;
21899;SDS011;11114;50.658;12.704;2023-11-21T04:05:52;19.33;;;17.80;;
21899;SDS011;11114;50.658;12.704;2023-11-21T04:08:39;19.25;;;17.67;;
21899;SDS011;11114;50.658;12.704;2023-11-21T04:11:25;19.40;;;17.90;;
21899;SDS011;11114;50.658;12.704;2023-11-21T04:14:13;19.65;;;18.05;;
21899;SDS011;11114;50.658;12.704;2023-11-21T04:16:59;19.27;;;17.77;;
21899;SDS011;11114;50.658;12.704;2023-11-21T04:19:46;19.58;;;17.98;;
21899;SDS011;11114;50.658;12.704;2023-11-21T04:22:32;19.85;;;18.35;;
21899;SDS011;11114;50.658;12.704;2023-11-21T04:25:19;19.20;;;17.70;;
21899;SDS011;11114;50.658;12.704;2023-11-21T04:28:06;19.42;;;17.83;;
21899;SDS011;11114;50.658;12.704;2023-11-21T04:30:53;18.73;;;17.33;;
21899;SDS011;11114;50.658;12.704;2023-11-21T04:33:39;19.70;;;18.30;;
21899;SDS011;11114;50.658;12.704;2023-11-21T04:36:26;18.80;;;17.20;;
21899;SDS011;11114;50.658;12.704;2023-11-21T04:39:12;19.40;;;17.80;;
21899;SDS011;11114;50.658;12.704;2023-11-21T04:41:58;18.75;;;17.35;;
21899;SDS011;11114;50.658;12.704;2023-11-21T04:44:45;19.40;;;17.85;;
21899;SDS011;11114;50.658;12.704;2023-11-21T04:47:32;19.55;;;18.00;;
21899;SDS011;11114;50.658;12.704;2023-11-21T04:50:19;18.63;;;17.23;;
21899;SDS011;11114;50.658;12.704;2023-11-21T04:53:06;19.80;;;18.23;;
21899;SDS011;11114;50.658;12.704;2023-11-21T04:55:52;19.90;;;18.00;;
21899;SDS011;11114;50.658;12.704;2023-11-21T04:58:39;20.05;;;18.45;;
21899;SDS011;11114;50.658;12.704;2023-11-21T05:01:26;18.70;;;17.25;;
21899;SDS011;11114;50.658;12.704;2023-11-21T05:04:13;18.95;;;17.45;;
21899;SDS011;11114;50.658;12.704;2023-11-21T05:07:00;19.02;;;17.50;;
21899;SDS011;11114;50.658;12.704;2023-11-21T05:09:47;19.80;;;18.10;;
21899;SDS011;11114;50.658;12.704;2023-11-21T05:12:33;20.23;;;18.50;;
21899;SDS011;11114;50.658;12.704;2023-11-21T05:15:23;19.33;;;17.80;;
21899;SDS011;11114;50.658;12.704;2023-11-21T05:18:10;19.58;;;18.08;;
21899;SDS011;11114;50.658;12.704;2023-11-21T05:20:57;20.85;;;18.92;;
21899;SDS011;11114;50.658;12.704;2023-11-21T05:23:44;20.13;;;18.23;;
21899;SDS011;11114;50.658;12.704;2023-11-21T05:26:30;18.58;;;17.17;;
21899;SDS011;11114;50.658;12.704;2023-11-21T05:29:19;19.17;;;17.55;;
21899;SDS011;11114;50.658;12.704;2023-11-21T05:32:05;18.45;;;16.95;;
21899;SDS011;11114;50.658;12.704;2023-11-21T05:34:52;18.45;;;17.00;;
21899;SDS011;11114;50.658;12.704;2023-11-21T05:37:39;17.95;;;16.63;;
21899;SDS011;11114;50.658;12.704;2023-11-21T05:40:26;18.05;;;16.65;;
21899;SDS011;11114;50.658;12.704;2023-11-21T05:43:16;18.83;;;17.33;;
21899;SDS011;11114;50.658;12.704;2023-11-21T05:46:03;18.98;;;17.48;;
21899;SDS011;11114;50.658;12.704;2023-11-21T05:48:50;20.08;;;18.30;;
21899;SDS011;11114;50.658;12.704;2023-11-21T05:51:37;19.98;;;18.42;;
21899;SDS011;11114;50.658;12.704;2023-11-21T05:54:24;19.50;;;17.90;;
21899;SDS011;11114;50.658;12.704;2023-11-21T05:57:12;19.15;;;17.60;;
21899;SDS011;11114;50.658;12.704;2023-11-21T05:59:59;18.77;;;17.00;;
21899;SDS011;11114;50.658;12.704;2023-11-21T06:02:54;19.50;;;18.00;;
21899;SDS011;11114;50.658;12.704;2023-11-21T06:05:42;20.55;;;18.85;;
21899;SDS011;11114;50.658;12.704;2023-11-21T06:08:28;20.30;;;18.58;;
21899;SDS011;11114;50.658;12.704;2023-11-21T06:11:14;19.55;;;17.90;;
21899;SDS011;11114;50.658;12.704;2023-11-21T06:14:02;20.60;;;18.55;;
21899;SDS011;11114;50.658;12.704;2023-11-21T06:16:48;20.23;;;18.63;;
21899;SDS011;11114;50.658;12.704;2023-11-21T06:19:37;20.10;;;18.40;;
21899;SDS011;11114;50.658;12.704;2023-11-21T06:22:23;19.75;;;18.15;;
21899;SDS011;11114;50.658;12.704;2023-11-21T06:25:09;21.55;;;19.65;;
21899;SDS011;11114;50.658;12.704;2023-11-21T06:27:57;20.80;;;19.00;;
21899;SDS011;11114;50.658;12.704;2023-11-21T06:30:44;19.70;;;17.92;;
21899;SDS011;11114;50.658;12.704;2023-11-21T06:33:32;19.65;;;18.05;;
21899;SDS011;11114;50.658;12.704;2023-11-21T06:36:18;19.85;;;18.05;;
21899;SDS011;11114;50.658;12.704;2023-11-21T06:43:07;21.70;;;19.80;;
21899;SDS011;11114;50.658;12.704;2023-11-21T06:45:54;20.13;;;18.42;;
21899;SDS011;11114;50.658;12.704;2023-11-21T06:48:42;21.50;;;19.60;;
21899;SDS011;11114;50.658;12.704;2023-11-21T06:51:29;21.73;;;19.63;;
21899;SDS011;11114;50.658;12.704;2023-11-21T06:54:16;20.38;;;18.40;;
21899;SDS011;11114;50.658;12.704;2023-11-21T06:57:03;21.00;;;19.10;;
21899;SDS011;11114;50.658;12.704;2023-11-21T06:59:50;21.63;;;19.52;;
21899;SDS011;11114;50.658;12.704;2023-11-21T07:02:36;21.80;;;19.85;;
21899;SDS011;11114;50.658;12.704;2023-11-21T07:05:23;21.88;;;19.98;;
21899;SDS011;11114;50.658;12.704;2023-11-21T07:08:10;21.60;;;19.58;;
21899;SDS011;11114;50.658;12.704;2023-11-21T07:10:57;21.23;;;19.52;;
21899;SDS011;11114;50.658;12.704;2023-11-21T07:13:43;22.08;;;20.17;;
21899;SDS011;11114;50.658;12.704;2023-11-21T07:16:29;21.70;;;19.80;;
21899;SDS011;11114;50.658;12.704;2023-11-21T07:19:16;22.55;;;20.50;;
21899;SDS011;11114;50.658;12.704;2023-11-21T07:22:02;23.20;;;21.00;;
21899;SDS011;11114;50.658;12.704;2023-11-21T07:24:49;23.45;;;21.23;;
21899;SDS011;11114;50.658;12.704;2023-11-21T07:27:37;22.48;;;20.50;;
21899;SDS011;11114;50.658;12.704;2023-11-21T07:30:24;23.25;;;21.13;;
21899;SDS011;11114;50.658;12.704;2023-11-21T07:33:11;23.02;;;21.02;;
21899;SDS011;11114;50.658;12.704;2023-11-21T07:35:58;23.45;;;21.23;;
21899;SDS011;11114;50.658;12.704;2023-11-21T07:38:45;24.20;;;21.95;;
21899;SDS011;11114;50.658;12.704;2023-11-21T07:41:33;24.58;;;22.17;;
21899;SDS011;11114;50.658;12.704;2023-11-21T07:44:19;23.83;;;21.63;;
21899;SDS011;11114;50.658;12.704;2023-11-21T07:47:06;23.17;;;21.10;;
21899;SDS011;11114;50.658;12.704;2023-11-21T07:49:53;24.27;;;22.17;;
21899;SDS011;11114;50.658;12.704;2023-11-21T07:52:42;23.83;;;21.42;;
21899;SDS011;11114;50.658;12.704;2023-11-21T07:55:29;23.83;;;21.63;;
21899;SDS011;11114;50.658;12.704;2023-11-21T07:58:19;23.98;;;21.45;;
21899;SDS011;11114;50.658;12.704;2023-11-21T08:01:05;24.70;;;22.30;;
21899;SDS011;11114;50.658;12.704;2023-11-21T08:03:52;24.23;;;22.23;;
21899;SDS011;11114;50.658;12.704;2023-11-21T08:06:39;25.50;;;22.88;;
21899;SDS011;11114;50.658;12.704;2023-11-21T08:09:27;24.27;;;22.02;;
21899;SDS011;11114;50.658;12.704;2023-11-21T08:12:14;23.35;;;21.10;;
21899;SDS011;11114;50.658;12.704;2023-11-21T08:15:01;22.88;;;20.88;;
21899;SDS011;11114;50.658;12.704;2023-11-21T08:17:49;24.63;;;22.38;;
21899;SDS011;11114;50.658;12.704;2023-11-21T08:20:36;22.98;;;21.08;;
21899;SDS011;11114;50.658;12.704;2023-11-21T08:23:24;22.90;;;20.67;;
21899;SDS011;11114;50.658;12.704;2023-11-21T08:26:20;22.75;;;20.85;;
21899;SDS011;11114;50.658;12.704;2023-11-21T08:29:07;24.58;;;22.25;;
21899;SDS011;11114;50.658;12.704;2023-11-21T08:31:53;26.27;;;23.17;;
21899;SDS011;11114;50.658;12.704;2023-11-21T08:34:41;24.92;;;22.65;;
21899;SDS011;11114;50.658;12.704;2023-11-21T08:37:33;25.77;;;23.45;;
21899;SDS011;11114;50.658;12.704;2023-11-21T08:40:23;28.15;;;25.52;;
21899;SDS011;11114;50.658;12.704;2023-11-21T08:43:09;28.55;;;25.92;;
21899;SDS011;11114;50.658;12.704;2023-11-21T08:45:58;26.85;;;24.60;;
21899;SDS011;11114;50.658;12.704;2023-11-21T08:48:46;27.73;;;25.05;;
21899;SDS011;11114;50.658;12.704;2023-11-21T09:09:16;25.95;;;23.17;;
21899;SDS011;11114;50.658;12.704;2023-11-21T09:12:04;26.27;;;23.73;;
21899;SDS011;11114;50.658;12.704;2023-11-21T09:14:50;28.85;;;26.02;;
21899;SDS011;11114;50.658;12.704;2023-11-21T09:17:37;28.52;;;25.73;;
21899;SDS011;11114;50.658;12.704;2023-11-21T09:20:25;29.45;;;26.13;;
21899;SDS011;11114;50.658;12.704;2023-11-21T09:23:11;27.50;;;24.83;;
21899;SDS011;11114;50.658;12.704;2023-11-21T09:25:58;27.10;;;24.65;;
21899;SDS011;11114;50.658;12.704;2023-11-21T09:28:47;27.40;;;24.83;;
21899;SDS011;11114;50.658;12.704;2023-11-21T09:31:34;27.25;;;24.73;;
21899;SDS011;11114;50.658;12.704;2023-11-21T09:34:22;28.88;;;26.40;;
21899;SDS011;11114;50.658;12.704;2023-11-21T09:37:08;30.17;;;27.58;;
21899;SDS011;11114;50.658;12.704;2023-11-21T09:39:56;27.60;;;25.10;;
21899;SDS011;11114;50.658;12.704;2023-11-21T09:42:50;44.25;;;27.13;;
21899;SDS011;11114;50.658;12.704;2023-11-21T09:45:39;30.65;;;27.95;;
21899;SDS011;11114;50.658;12.704;2023-11-21T09:48:26;46.90;;;28.83;;
21899;SDS011;11114;50.658;12.704;2023-11-21T09:51:13;37.63;;;27.08;;
21899;SDS011;11114;50.658;12.704;2023-11-21T09:54:02;34.38;;;26.75;;
21899;SDS011;11114;50.658;12.704;2023-11-21T09:56:52;65.93;;;27.98;;
21899;SDS011;11114;50.658;12.704;2023-11-21T09:59:38;51.00;;;26.25;;
21899;SDS011;11114;50.658;12.704;2023-11-21T10:02:27;28.90;;;26.10;;
21899;SDS011;11114;50.658;12.704;2023-11-21T10:05:21;40.67;;;26.88;;
21899;SDS011;11114;50.658;12.704;2023-11-21T10:08:12;53.88;;;26.25;;
21899;SDS011;11114;50.658;12.704;2023-11-21T10:10:58;288.15;;;34.78;;
21899;SDS011;11114;50.658;12.704;2023-11-21T10:13:46;41.55;;;26.75;;
21899;SDS011;11114;50.658;12.704;2023-11-21T10:16:33;31.33;;;28.10;;
21899;SDS011;11114;50.658;12.704;2023-11-21T10:19:20;29.33;;;26.60;;
21899;SDS011;11114;50.658;12.704;2023-11-21T10:22:07;28.48;;;26.13;;
21899;SDS011;11114;50.658;12.704;2023-11-21T10:24:55;28.50;;;25.45;;
21899;SDS011;11114;50.658;12.704;2023-11-21T10:27:41;68.38;;;26.90;;
21899;SDS011;11114;50.658;12.704;2023-11-21T10:30:33;27.10;;;24.90;;
21899;SDS011;11114;50.658;12.704;2023-11-21T10:33:29;27.50;;;24.65;;
21899;SDS011;11114;50.658;12.704;2023-11-21T10:36:25;28.42;;;25.88;;
21899;SDS011;11114;50.658;12.704;2023-11-21T10:39:16;25.73;;;23.63;;
21899;SDS011;11114;50.658;12.704;2023-11-21T10:42:07;26.67;;;24.30;;
21899;SDS011;11114;50.658;12.704;2023-11-21T10:44:55;28.95;;;26.42;;
21899;SDS011;11114;50.658;12.704;2023-11-21T10:47:43;33.47;;;30.67;;
21899;SDS011;11114;50.658;12.704;2023-11-21T10:50:32;31.83;;;29.20;;
21899;SDS011;11114;50.658;12.704;2023-11-21T10:53:19;29.77;;;27.08;;
21899;SDS011;11114;50.658;12.704;2023-11-21T10:56:08;28.90;;;26.40;;
21899;SDS011;11114;50.658;12.704;2023-11-21T10:59:03;27.83;;;25.52;;
21899;SDS011;11114;50.658;12.704;2023-11-21T11:01:50;36.83;;;33.45;;
21899;SDS011;11114;50.658;12.704;2023-11-21T11:04:38;32.58;;;29.70;;
21899;SDS011;11114;50.658;12.704;2023-11-21T11:07:27;31.92;;;28.65;;
21899;SDS011;11114;50.658;12.704;2023-11-21T11:10:14;39.17;;;29.00;;
21899;SDS011;11114;50.658;12.704;2023-11-21T11:13:01;36.35;;;28.65;;
21899;SDS011;11114;50.658;12.704;2023-11-21T11:15:49;32.13;;;26.30;;
21899;SDS011;11114;50.658;12.704;2023-11-21T11:18:38;28.30;;;25.88;;
21899;SDS011;11114;50.658;12.704;2023-11-21T11:21:45;71.63;;;29.45;;
21899;SDS011;11114;50.658;12.704;2023-11-21T11:27:39;45.85;;;28.25;;
21899;SDS011;11114;50.658;12.704;2023-11-21T11:33:41;203.48;;;32.20;;
21899;SDS011;11114;50.658;12.704;2023-11-21T11:36:33;247.60;;;35.38;;
21899;SDS011;11114;50.658;12.704;2023-11-21T11:39:31;145.38;;;30.30;;
21899;SDS011;11114;50.658;12.704;2023-11-21T11:42:22;162.70;;;31.10;;
21899;SDS011;11114;50.658;12.704;2023-11-21T11:45:19;353.27;;;37.92;;
21899;SDS011;11114;50.658;12.704;2023-11-21T11:48:05;87.85;;;28.42;;
21899;SDS011;11114;50.658;12.704;2023-11-21T11:51:02;78.15;;;29.40;;
21899;SDS011;11114;50.658;12.704;2023-11-21T11:53:54;53.83;;;26.27;;
21899;SDS011;11114;50.658;12.704;2023-11-21T11:56:41;43.67;;;27.33;;
21899;SDS011;11114;50.658;12.704;2023-11-21T11:59:28;29.02;;;26.35;;
21899;SDS011;11114;50.658;12.704;2023-11-21T12:02:14;27.27;;;24.77;;
21899;SDS011;11114;50.658;12.704;2023-11-21T12:05:01;28.83;;;25.92;;
21899;SDS011;11114;50.658;12.704;2023-11-21T12:07:55;34.35;;;25.00;;
21899;SDS011;11114;50.658;12.704;2023-11-21T12:10:43;26.65;;;24.25;;
21899;SDS011;11114;50.658;12.704;2023-11-21T12:13:31;25.95;;;23.77;;
21899;SDS011;11114;50.658;12.704;2023-11-21T12:16:18;26.80;;;24.45;;
21899;SDS011;11114;50.658;12.704;2023-11-21T12:19:07;34.60;;;24.80;;
21899;SDS011;11114;50.658;12.704;2023-11-21T12:21:53;91.85;;;25.60;;
21899;SDS011;11114;50.658;12.704;2023-11-21T12:24:42;162.13;;;27.95;;
21899;SDS011;11114;50.658;12.704;2023-11-21T12:27:28;87.75;;;28.27;;
21899;SDS011;11114;50.658;12.704;2023-11-21T12:30:15;357.30;;;32.13;;
21899;SDS011;11114;50.658;12.704;2023-11-21T12:33:03;263.90;;;30.15;;
21899;SDS011;11114;50.658;12.704;2023-11-21T12:35:53;476.67;;;36.13;;
21899;SDS011;11114;50.658;12.704;2023-11-21T12:38:40;389.75;;;32.25;;
21899;SDS011;11114;50.658;12.704;2023-11-21T12:41:28;369.58;;;35.33;;
21899;SDS011;11114;50.658;12.704;2023-11-21T12:44:16;546.33;;;40.13;;
21899;SDS011;11114;50.658;12.704;2023-11-21T12:47:03;441.23;;;35.30;;
21899;SDS011;11114;50.658;12.704;2023-11-21T12:49:50;363.92;;;30.05;;
21899;SDS011;11114;50.658;12.704;2023-11-21T12:52:36;251.00;;;25.90;;
21899;SDS011;11114;50.658;12.704;2023-11-21T12:55:25;274.08;;;31.45;;
21899;SDS011;11114;50.658;12.704;2023-11-21T12:58:12;74.00;;;25.55;;
21899;SDS011;11114;50.658;12.704;2023-11-21T13:00:59;100.70;;;26.25;;
21899;SDS011;11114;50.658;12.704;2023-11-21T13:03:47;292.92;;;31.67;;
21899;SDS011;11114;50.658;12.704;2023-11-21T13:06:37;86.25;;;27.88;;
21899;SDS011;11114;50.658;12.704;2023-11-21T13:09:27;42.90;;;26.83;;
21899;SDS011;11114;50.658;12.704;2023-11-21T13:12:14;28.80;;;25.73;;
21899;SDS011;11114;50.658;12.704;2023-11-21T13:15:05;24.58;;;22.55;;
21899;SDS011;11114;50.658;12.704;2023-11-21T13:17:54;26.85;;;24.27;;
21899;SDS011;11114;50.658;12.704;2023-11-21T13:20:42;30.33;;;24.65;;
21899;SDS011;11114;50.658;12.704;2023-11-21T13:23:29;26.98;;;24.30;;
21899;SDS011;11114;50.658;12.704;2023-11-21T13:26:20;30.08;;;27.30;;
21899;SDS011;11114;50.658;12.704;2023-11-21T13:29:08;26.60;;;24.20;;
21899;SDS011;11114;50.658;12.704;2023-11-21T13:31:55;27.65;;;25.15;;
21899;SDS011;11114;50.658;12.704;2023-11-21T13:34:42;26.95;;;24.45;;
21899;SDS011;11114;50.658;12.704;2023-11-21T13:37:31;25.35;;;23.15;;
21899;SDS011;11114;50.658;12.704;2023-11-21T13:40:20;23.60;;;21.63;;
21899;SDS011;11114;50.658;12.704;2023-11-21T13:43:12;25.48;;;23.27;;
21899;SDS011;11114;50.658;12.704;2023-11-21T13:46:00;27.00;;;24.60;;
21899;SDS011;11114;50.658;12.704;2023-11-21T13:48:59;27.92;;;25.52;;
21899;SDS011;11114;50.658;12.704;2023-11-21T13:51:47;28.15;;;25.65;;
21899;SDS011;11114;50.658;12.704;2023-11-21T13:54:38;27.40;;;25.10;;
21899;SDS011;11114;50.658;12.704;2023-11-21T13:57:24;26.17;;;23.88;;
21899;SDS011;11114;50.658;12.704;2023-11-21T14:00:11;26.23;;;23.88;;
21899;SDS011;11114;50.658;12.704;2023-11-21T14:03:18;26.05;;;23.85;;
21899;SDS011;11114;50.658;12.704;2023-11-21T14:06:08;26.00;;;23.70;;
21899;SDS011;11114;50.658;12.704;2023-11-21T14:09:00;26.90;;;24.40;;
21899;SDS011;11114;50.658;12.704;2023-11-21T14:11:55;26.65;;;24.23;;
21899;SDS011;11114;50.658;12.704;2023-11-21T14:14:42;26.98;;;24.58;;
21899;SDS011;11114;50.658;12.704;2023-11-21T14:17:31;25.77;;;23.45;;
21899;SDS011;11114;50.658;12.704;2023-11-21T14:20:17;25.20;;;22.90;;
21899;SDS011;11114;50.658;12.704;2023-11-21T14:23:07;25.70;;;23.40;;
21899;SDS011;11114;50.658;12.704;2023-11-21T14:25:54;25.95;;;23.65;;
21899;SDS011;11114;50.658;12.704;2023-11-21T14:28:41;34.05;;;29.02;;
21899;SDS011;11114;50.658;12.704;2023-11-21T14:31:28;24.70;;;22.50;;
21899;SDS011;11114;50.658;12.704;2023-11-21T14:34:16;25.27;;;22.98;;
21899;SDS011;11114;50.658;12.704;2023-11-21T14:37:08;25.30;;;23.00;;
21899;SDS011;11114;50.658;12.704;2023-11-21T14:39:55;25.02;;;22.83;;
21899;SDS011;11114;50.658;12.704;2023-11-21T14:42:42;24.55;;;22.45;;
21899;SDS011;11114;50.658;12.704;2023-11-21T14:45:28;24.83;;;22.73;;
21899;SDS011;11114;50.658;12.704;2023-11-21T14:48:17;24.98;;;22.92;;
21899;SDS011;11114;50.658;12.704;2023-11-21T14:51:15;23.83;;;21.83;;
21899;SDS011;11114;50.658;12.704;2023-11-21T14:54:05;23.42;;;21.42;;
21899;SDS011;11114;50.658;12.704;2023-11-21T14:56:56;23.05;;;21.05;;
21899;SDS011;11114;50.658;12.704;2023-11-21T14:59:43;23.17;;;21.08;;
21899;SDS011;11114;50.658;12.704;2023-11-21T15:02:39;22.10;;;20.20;;
21899;SDS011;11114;50.658;12.704;2023-11-21T15:05:36;22.70;;;20.60;;
21899;SDS011;11114;50.658;12.704;2023-11-21T15:08:25;25.58;;;23.17;;
21899;SDS011;11114;50.658;12.704;2023-11-21T15:11:19;23.23;;;21.15;;
21899;SDS011;11114;50.658;12.704;2023-11-21T15:14:08;28.00;;;23.23;;
21899;SDS011;11114;50.658;12.704;2023-11-21T15:16:56;36.70;;;23.58;;
21899;SDS011;11114;50.658;12.704;2023-11-21T15:19:45;170.93;;;27.05;;
21899;SDS011;11114;50.658;12.704;2023-11-21T15:22:32;99.13;;;25.05;;
21899;SDS011;11114;50.658;12.704;2023-11-21T15:25:18;102.85;;;24.88;;
21899;SDS011;11114;50.658;12.704;2023-11-21T15:28:05;41.35;;;25.40;;
21899;SDS011;11114;50.658;12.704;2023-11-21T15:30:52;24.80;;;22.60;;
21899;SDS011;11114;50.658;12.704;2023-11-21T15:33:42;23.70;;;21.60;;
21899;SDS011;11114;50.658;12.704;2023-11-21T15:36:29;24.67;;;22.55;;
21899;SDS011;11114;50.658;12.704;2023-11-21T15:39:16;23.60;;;21.70;;
21899;SDS011;11114;50.658;12.704;2023-11-21T15:42:02;23.80;;;21.80;;
21899;SDS011;11114;50.658;12.704;2023-11-21T15:44:50;24.05;;;21.95;;
21899;SDS011;11114;50.658;12.704;2023-11-21T15:47:37;25.42;;;23.02;;
21899;SDS011;11114;50.658;12.704;2023-11-21T15:50:25;23.50;;;21.50;;
21899;SDS011;11114;50.658;12.704;2023-11-21T15:53:12;25.05;;;22.88;;
21899;SDS011;11114;50.658;12.704;2023-11-21T15:55:59;23.95;;;21.90;;
21899;SDS011;11114;50.658;12.704;2023-11-21T15:58:46;24.33;;;22.20;;
21899;SDS011;11114;50.658;12.704;2023-11-21T16:01:36;24.02;;;22.00;;
21899;SDS011;11114;50.658;12.704;2023-11-21T16:04:28;25.38;;;22.95;;
21899;SDS011;11114;50.658;12.704;2023-11-21T16:07:14;25.48;;;23.27;;
21899;SDS011;11114;50.658;12.704;2023-11-21T16:10:02;24.08;;;21.98;;
21899;SDS011;11114;50.658;12.704;2023-11-21T16:12:54;26.08;;;23.67;;
21899;SDS011;11114;50.658;12.704;2023-11-21T16:15:41;25.17;;;22.88;;
21899;SDS011;11114;50.658;12.704;2023-11-21T16:18:32;24.42;;;22.25;;
21899;SDS011;11114;50.658;12.704;2023-11-21T16:21:18;23.50;;;21.45;;
21899;SDS011;11114;50.658;12.704;2023-11-21T16:24:06;24.70;;;22.60;;
21899;SDS011;11114;50.658;12.704;2023-11-21T16:26:52;24.92;;;22.73;;
21899;SDS011;11114;50.658;12.704;2023-11-21T16:29:41;26.52;;;24.08;;
21899;SDS011;11114;50.658;12.704;2023-11-21T16:32:31;32.75;;;29.45;;
21899;SDS011;11114;50.658;12.704;2023-11-21T16:35:23;32.75;;;29.27;;
21899;SDS011;11114;50.658;12.704;2023-11-21T16:38:10;26.65;;;24.00;;